Time;durP1;ratioP1;P1;durP2;ratioP2;P2;SDS_P1;SDS_P2;PMS_P1;PMS_P2;Temp;Humidity;BMP_temperature;BMP_pressure;BME280_temperature;BME280_humidity;BME280_pressure;Samples;Min_cycle;Max_cycle;Signal;HPM_P1;HPM_P2
2022/05/18 00:01:39;;;;;;;1.52;1.13;;;22.90;51.50;21.80;101578.00;;;;5067344;28;20047;-73
2022/05/18 00:04:27;;;;;;;2.67;0.90;;;23.00;51.60;21.80;101574.00;;;;5057884;28;20033;-73
2022/05/18 00:07:13;;;;;;;1.40;0.90;;;22.90;51.50;21.80;101572.00;;;;5064130;28;20387;-73
2022/05/18 00:09:59;;;;;;;1.42;0.88;;;22.90;51.50;21.80;101575.00;;;;5057674;28;20043;-74
2022/05/18 00:12:46;;;;;;;4.78;1.02;;;22.90;51.50;21.80;101571.00;;;;5059280;28;20115;-73
2022/05/18 00:15:33;;;;;;;2.13;1.40;;;22.90;51.50;21.80;101585.00;;;;5063932;28;20072;-73
2022/05/18 00:18:19;;;;;;;4.38;2.35;;;22.90;51.50;21.80;101578.00;;;;5049491;28;20037;-73
2022/05/18 00:21:05;;;;;;;1.40;1.10;;;22.90;51.40;21.80;101586.00;;;;5060221;28;20094;-73
2022/05/18 00:23:51;;;;;;;1.25;1.15;;;22.90;51.50;21.80;101572.00;;;;5046040;28;20045;-73
2022/05/18 00:26:37;;;;;;;1.77;1.08;;;22.90;51.50;21.80;101575.00;;;;5063337;28;20055;-74
2022/05/18 00:29:23;;;;;;;1.63;0.90;;;22.90;51.50;21.80;101585.00;;;;5045895;28;20038;-73
2022/05/18 00:32:09;;;;;;;1.83;1.13;;;23.00;51.50;21.80;101581.00;;;;5062662;28;20048;-73
2022/05/18 00:34:56;;;;;;;1.65;0.93;;;22.90;52.30;21.80;101580.00;;;;5061885;28;20966;-73
2022/05/18 00:37:42;;;;;;;1.90;1.10;;;22.90;51.50;21.80;101577.00;;;;5064883;28;20048;-73
2022/05/18 00:40:28;;;;;;;3.30;1.38;;;22.90;51.50;21.80;101575.00;;;;5050549;28;20042;-74
2022/05/18 00:43:30;;;;;;;1.92;1.00;;;22.90;51.60;21.80;101573.00;;;;5071697;28;20048;-73
2022/05/18 00:46:16;;;;;;;2.20;1.20;;;22.90;51.50;21.80;101575.00;;;;5064941;28;20520;-74
2022/05/18 00:49:06;;;;;;;1.88;1.00;;;22.90;51.50;21.80;101577.00;;;;5048525;28;20542;-73
2022/05/18 00:51:53;;;;;;;1.60;1.17;;;22.90;51.50;21.80;101571.00;;;;5077541;28;20091;-73
2022/05/18 00:54:39;;;;;;;1.90;1.08;;;22.90;51.50;21.80;101568.00;;;;5053618;28;20044;-73
2022/05/18 00:57:32;;;;;;;2.38;1.45;;;22.90;51.50;21.80;101571.00;;;;5069071;28;20041;-74
2022/05/18 01:00:19;;;;;;;1.73;1.13;;;22.90;51.50;21.80;101571.00;;;;5054059;28;20052;-73
2022/05/18 01:03:13;;;;;;;1.52;1.10;;;22.90;51.50;21.80;101569.00;;;;5085113;28;20044;-74
2022/05/18 01:06:08;;;;;;;1.73;1.10;;;23.00;51.60;21.80;101574.00;;;;5067954;28;20048;-73
2022/05/18 01:09:18;;;;;;;2.85;1.40;;;22.90;51.50;21.80;101578.00;;;;5055746;28;20892;-74
2022/05/18 01:12:05;;;;;;;2.92;1.05;;;22.90;51.50;21.80;101580.00;;;;5053866;28;20040;-73
2022/05/18 01:15:02;;;;;;;2.90;1.30;;;22.90;51.50;21.80;101578.00;;;;5085312;28;20080;-73
2022/05/18 01:17:52;;;;;;;2.28;1.30;;;22.90;51.60;21.80;101578.00;;;;5076447;28;20139;-73
2022/05/18 01:20:38;;;;;;;2.22;1.42;;;22.90;51.50;21.80;101587.00;;;;5050626;28;20405;-73
2022/05/18 01:23:38;;;;;;;5.22;1.40;;;22.90;51.50;21.80;101582.00;;;;5055066;28;20040;-73
2022/05/18 01:26:44;;;;;;;1.92;1.25;;;22.90;51.60;21.80;101590.00;;;;5066165;28;20044;-74
2022/05/18 01:29:30;;;;;;;2.67;1.70;;;22.90;51.60;21.80;101574.00;;;;5049023;28;20036;-73
2022/05/18 01:32:16;;;;;;;2.80;1.27;;;22.90;51.60;21.80;101570.00;;;;5063365;28;20524;-73
2022/05/18 01:35:02;;;;;;;1.85;1.13;;;22.90;51.60;21.80;101571.00;;;;5063940;28;20187;-73
2022/05/18 01:37:48;;;;;;;1.65;1.13;;;22.90;51.60;21.80;101578.00;;;;5046205;28;20478;-73
2022/05/18 01:40:41;;;;;;;3.28;1.33;;;22.90;51.60;21.80;101577.00;;;;5049128;28;20055;-74
2022/05/18 01:43:39;;;;;;;1.85;1.33;;;22.90;51.60;21.80;101582.00;;;;5058493;28;20509;-73
2022/05/18 01:46:25;;;;;;;2.08;1.20;;;22.90;51.70;21.80;101579.00;;;;5062014;28;20116;-73
2022/05/18 01:49:11;;;;;;;2.30;1.40;;;22.90;51.70;21.80;101588.00;;;;5061183;28;20584;-73
2022/05/18 01:51:57;;;;;;;2.88;1.42;;;22.90;51.60;21.80;101582.00;;;;5064563;28;20044;-73
2022/05/18 01:54:46;;;;;;;2.65;1.35;;;22.90;51.70;21.80;101589.00;;;;5062859;28;20430;-74
2022/05/18 01:57:33;;;;;;;2.17;1.55;;;22.90;51.70;21.80;101582.00;;;;5035074;28;20048;-73
2022/05/18 02:00:19;;;;;;;1.63;1.23;;;22.90;51.70;21.80;101585.00;;;;5048970;28;20052;-73
2022/05/18 02:03:06;;;;;;;1.50;1.20;;;22.90;51.70;21.80;101587.00;;;;5073493;28;20432;-73
2022/05/18 02:05:52;;;;;;;1.73;1.10;;;22.90;51.70;21.80;101584.00;;;;5059586;28;20040;-73
2022/05/18 02:08:40;;;;;;;2.43;1.57;;;22.90;51.70;21.80;101594.00;;;;5060066;28;20036;-74
2022/05/18 02:11:26;;;;;;;2.45;1.35;;;22.90;51.70;21.80;101589.00;;;;5057707;28;20102;-73
2022/05/18 02:14:13;;;;;;;1.40;1.30;;;22.90;51.70;21.80;101589.00;;;;5059246;28;20052;-73
2022/05/18 02:16:59;;;;;;;3.13;1.55;;;22.90;51.70;21.80;101587.00;;;;5058625;28;20056;-73
2022/05/18 02:19:45;;;;;;;2.70;1.60;;;22.90;51.70;21.80;101596.00;;;;5053782;28;20347;-73
2022/05/18 02:22:31;;;;;;;1.63;1.52;;;22.90;51.70;21.80;101592.00;;;;5062017;28;20048;-73
2022/05/18 02:25:18;;;;;;;3.28;1.55;;;22.90;51.70;21.80;101581.00;;;;5056291;28;20036;-73
2022/05/18 02:28:04;;;;;;;4.37;1.80;;;22.90;51.70;21.80;101576.00;;;;5042803;28;20127;-74
2022/05/18 02:30:50;;;;;;;3.30;1.60;;;22.90;51.70;21.80;101587.00;;;;5061248;28;20132;-73
2022/05/18 02:33:36;;;;;;;1.90;1.70;;;22.90;51.70;21.80;101575.00;;;;5060649;28;20535;-73
2022/05/18 02:36:22;;;;;;;2.58;1.48;;;22.90;51.70;21.80;101570.00;;;;5048498;28;20049;-73
2022/05/18 02:39:09;;;;;;;2.38;1.60;;;22.90;51.70;21.80;101583.00;;;;5055722;28;20052;-73
2022/05/18 02:41:55;;;;;;;3.03;1.70;;;22.90;51.70;21.80;101582.00;;;;5064070;28;20051;-73
2022/05/18 02:44:41;;;;;;;1.98;1.38;;;22.90;51.80;21.80;101580.00;;;;5047825;28;20098;-73
2022/05/18 02:47:27;;;;;;;2.47;1.55;;;22.80;51.70;21.80;101578.00;;;;5060712;28;20040;-73
2022/05/18 02:50:13;;;;;;;2.83;1.70;;;22.90;51.70;21.80;101573.00;;;;5047706;28;20041;-73
2022/05/18 02:53:00;;;;;;;3.00;1.70;;;22.90;51.80;21.80;101567.00;;;;5058199;28;20041;-73
2022/05/18 02:58:52;;;;;;;2.35;1.65;;;22.90;51.80;21.80;101573.00;;;;5060853;28;20374;-74
2022/05/18 03:01:39;;;;;;;1.33;1.23;;;22.90;51.80;21.80;101574.00;;;;5056351;28;20048;-74
2022/05/18 03:04:26;;;;;;;2.40;1.63;;;22.90;51.90;21.80;101569.00;;;;5054756;28;20047;-73
2022/05/18 03:07:12;;;;;;;2.88;1.70;;;22.90;51.80;21.80;101574.00;;;;5075949;28;20060;-73
2022/05/18 03:09:58;;;;;;;2.30;1.70;;;22.90;51.80;21.80;101579.00;;;;5060055;28;20094;-74
2022/05/18 03:12:44;;;;;;;2.10;1.38;;;22.90;51.80;21.80;101577.00;;;;5064248;28;20048;-73
2022/05/18 03:15:30;;;;;;;2.22;1.70;;;22.90;51.90;21.80;101578.00;;;;5050153;28;20108;-74
2022/05/18 03:18:16;;;;;;;2.58;1.63;;;22.80;51.80;21.80;101574.00;;;;5060849;28;20064;-73
2022/05/18 03:24:09;;;;;;;1.60;1.50;;;22.90;51.90;21.70;101592.00;;;;5058821;28;20047;-73
2022/05/18 03:26:55;;;;;;;6.25;2.40;;;22.90;51.90;21.70;101590.00;;;;5047511;28;20035;-74
2022/05/18 03:29:41;;;;;;;2.05;1.38;;;22.90;52.00;21.70;101582.00;;;;5049574;28;20041;-73
2022/05/18 03:32:27;;;;;;;3.78;2.08;;;22.80;51.90;21.70;101588.00;;;;5064274;28;20110;-73
2022/05/18 03:35:13;;;;;;;4.50;1.80;;;22.80;51.90;21.70;101586.00;;;;5049067;28;20063;-73
2022/05/18 03:38:00;;;;;;;1.67;1.48;;;22.90;51.90;21.70;101588.00;;;;5059624;28;20056;-74
2022/05/18 03:40:46;;;;;;;3.40;1.45;;;22.80;51.90;21.80;101590.00;;;;5060857;28;20083;-74
2022/05/18 03:43:32;;;;;;;3.80;1.73;;;22.80;51.90;21.80;101586.00;;;;5061978;28;20177;-73
2022/05/18 03:46:19;;;;;;;2.88;1.55;;;22.80;51.80;21.80;101582.00;;;;5059778;28;20044;-73
2022/05/18 03:49:05;;;;;;;2.83;1.73;;;22.90;51.90;21.80;101582.00;;;;5050572;28;20069;-73
2022/05/18 03:51:51;;;;;;;2.65;1.42;;;22.80;51.90;21.70;101588.00;;;;5062237;28;20036;-73
2022/05/18 03:54:37;;;;;;;2.17;1.50;;;22.80;51.90;21.70;101584.00;;;;5064344;28;20044;-74
2022/05/18 03:57:23;;;;;;;2.28;1.67;;;22.90;51.90;21.70;101586.00;;;;5066131;28;20048;-73
2022/05/18 04:00:10;;;;;;;2.70;1.55;;;22.80;51.90;21.70;101583.00;;;;5076672;28;20040;-74
2022/05/18 04:02:57;;;;;;;4.90;1.73;;;22.80;51.90;21.70;101593.00;;;;5063313;28;20123;-73
2022/05/18 04:05:43;;;;;;;2.40;1.63;;;22.80;51.90;21.70;101595.00;;;;5051180;28;20036;-73
2022/05/18 04:08:29;;;;;;;2.00;1.60;;;22.80;51.80;21.70;101592.00;;;;5062663;28;20045;-74
2022/05/18 04:11:15;;;;;;;3.25;1.83;;;22.80;51.90;21.70;101590.00;;;;5065172;28;20067;-73
2022/05/18 04:14:02;;;;;;;3.00;1.75;;;22.80;51.90;21.70;101599.00;;;;5058458;28;20055;-74
2022/05/18 04:16:49;;;;;;;4.32;1.70;;;22.80;51.90;21.70;101600.00;;;;5063847;28;20048;-74
2022/05/18 04:19:35;;;;;;;2.75;1.52;;;22.80;51.90;21.70;101599.00;;;;5060936;28;20055;-73
2022/05/18 04:22:21;;;;;;;2.10;1.70;;;22.80;51.90;21.70;101604.00;;;;5060045;28;20627;-73
2022/05/18 04:25:09;;;;;;;4.40;2.05;;;22.80;52.00;21.70;101607.00;;;;5046700;28;20036;-73
2022/05/18 04:27:55;;;;;;;2.42;1.77;;;22.80;52.00;21.70;101614.00;;;;5049285;28;20064;-73
2022/05/18 04:30:45;;;;;;;2.65;2.00;;;22.80;52.00;21.70;101608.00;;;;5059812;28;20072;-74
2022/05/18 04:33:31;;;;;;;3.20;1.70;;;22.80;51.90;21.70;101614.00;;;;5066570;28;20039;-73
2022/05/18 04:36:17;;;;;;;3.60;1.90;;;22.80;51.90;21.70;101622.00;;;;5064159;28;20532;-73
2022/05/18 04:39:03;;;;;;;2.53;1.55;;;22.80;51.90;21.70;101612.00;;;;5063038;28;20511;-73
2022/05/18 04:41:49;;;;;;;5.22;2.00;;;22.80;51.90;21.70;101613.00;;;;5058065;28;20041;-74
2022/05/18 04:44:35;;;;;;;3.33;2.03;;;22.80;52.60;21.70;101618.00;;;;5064520;28;20047;-73
2022/05/18 04:47:22;;;;;;;1.77;1.60;;;22.80;51.90;21.70;101617.00;;;;5073758;28;20094;-74
2022/05/18 04:50:08;;;;;;;3.40;2.00;;;22.80;52.00;21.70;101620.00;;;;5075698;28;20401;-74
2022/05/18 04:52:54;;;;;;;3.53;1.75;;;22.80;52.00;21.70;101635.00;;;;5062840;28;20036;-74
2022/05/18 04:55:41;;;;;;;2.95;1.67;;;22.80;52.00;21.70;101635.00;;;;5058865;28;20063;-73
2022/05/18 04:58:27;;;;;;;2.75;2.08;;;22.80;52.00;21.70;101642.00;;;;5065212;28;20102;-73
2022/05/18 05:01:13;;;;;;;3.30;1.77;;;22.90;52.00;21.70;101635.00;;;;5075610;28;20051;-73
2022/05/18 05:03:59;;;;;;;2.05;1.85;;;22.80;52.00;21.70;101638.00;;;;5060610;28;20041;-73
2022/05/18 05:06:46;;;;;;;4.43;2.20;;;22.80;52.00;21.70;101646.00;;;;5060239;28;20044;-73
2022/05/18 05:09:32;;;;;;;4.40;1.77;;;22.80;52.10;21.70;101652.00;;;;5061377;28;20033;-73
2022/05/18 05:12:18;;;;;;;2.40;1.73;;;22.80;52.00;21.70;101656.00;;;;5060068;28;20478;-74
2022/05/18 05:15:05;;;;;;;3.53;2.20;;;22.80;52.00;21.70;101657.00;;;;5049939;28;20048;-73
2022/05/18 05:17:51;;;;;;;2.53;1.77;;;22.80;52.10;21.70;101665.00;;;;5068340;28;20036;-73
2022/05/18 05:20:38;;;;;;;2.45;1.98;;;22.80;52.00;21.70;101663.00;;;;5066856;28;20039;-74
2022/05/18 05:23:26;;;;;;;3.35;1.88;;;22.80;52.20;21.70;101666.00;;;;5049548;28;20506;-73
2022/05/18 05:26:13;;;;;;;5.03;1.90;;;22.80;52.10;21.70;101670.00;;;;5050555;28;20037;-74
2022/05/18 05:28:59;;;;;;;4.97;1.90;;;22.80;52.10;21.70;101674.00;;;;5049061;28;20152;-73
2022/05/18 05:31:45;;;;;;;4.15;2.17;;;22.80;52.10;21.70;101669.00;;;;5058574;28;20059;-73
2022/05/18 05:34:31;;;;;;;2.35;1.60;;;22.80;52.10;21.70;101673.00;;;;5062604;28;20046;-73
2022/05/18 05:37:17;;;;;;;4.30;2.00;;;22.90;52.10;21.70;101668.00;;;;5063612;28;20482;-73
2022/05/18 05:40:25;;;;;;;2.35;1.75;;;22.80;52.00;21.70;101674.00;;;;5034501;28;20102;-73
2022/05/18 05:43:11;;;;;;;3.00;1.93;;;22.80;52.00;21.70;101662.00;;;;5064105;28;20043;-73
2022/05/18 05:45:59;;;;;;;1.90;1.42;;;22.80;52.00;21.70;101667.00;;;;5047141;28;20283;-74
2022/05/18 05:48:46;;;;;;;3.47;2.17;;;22.80;52.10;21.70;101677.00;;;;5056063;28;20056;-73
2022/05/18 05:51:32;;;;;;;2.67;1.63;;;22.80;52.10;21.70;101672.00;;;;5048661;28;20131;-74
2022/05/18 05:54:18;;;;;;;3.15;2.42;;;22.80;52.10;21.70;101671.00;;;;5051536;28;20044;-74
2022/05/18 05:57:04;;;;;;;2.33;1.67;;;22.80;52.20;21.70;101670.00;;;;5065995;28;20037;-74
2022/05/18 05:59:50;;;;;;;4.90;2.30;;;22.80;52.30;21.70;101667.00;;;;5046098;28;20093;-74
2022/05/18 06:02:36;;;;;;;4.72;2.25;;;22.80;52.30;21.70;101668.00;;;;5080472;28;20045;-73
2022/05/18 06:05:23;;;;;;;3.53;2.10;;;22.80;52.20;21.70;101677.00;;;;5047013;28;20047;-74
2022/05/18 06:08:09;;;;;;;2.97;2.10;;;22.80;52.20;21.70;101670.00;;;;5059562;28;20037;-74
2022/05/18 06:10:55;;;;;;;2.70;1.85;;;22.90;52.30;21.70;101671.00;;;;5047270;28;20071;-74
2022/05/18 06:13:41;;;;;;;2.95;2.08;;;22.80;52.30;21.70;101674.00;;;;5060134;28;20478;-73
2022/05/18 06:16:27;;;;;;;3.05;2.00;;;22.80;52.30;21.70;101684.00;;;;5061122;28;20040;-73
2022/05/18 06:19:14;;;;;;;2.15;1.95;;;22.80;52.40;21.70;101675.00;;;;5061582;28;20487;-74
2022/05/18 06:22:01;;;;;;;2.83;2.20;;;22.80;53.10;21.70;101675.00;;;;5047967;28;20105;-73
2022/05/18 06:24:51;;;;;;;4.53;2.00;;;22.80;52.40;21.70;101676.00;;;;5054840;28;20072;-74
2022/05/18 06:27:37;;;;;;;2.50;1.67;;;22.90;52.40;21.70;101680.00;;;;5063450;28;20296;-74
2022/05/18 06:30:23;;;;;;;2.85;2.28;;;22.80;52.50;21.70;101684.00;;;;5062602;28;20541;-73
2022/05/18 06:33:12;;;;;;;2.65;2.05;;;22.80;52.50;21.70;101682.00;;;;5065245;28;20663;-74
2022/05/18 06:35:58;;;;;;;4.75;2.20;;;22.80;52.50;21.70;101681.00;;;;5063258;28;20040;-74
2022/05/18 06:38:45;;;;;;;2.70;2.00;;;22.90;52.60;21.70;101688.00;;;;5064580;28;20053;-74
2022/05/18 06:41:32;;;;;;;2.85;2.13;;;22.90;52.60;21.70;101682.00;;;;5081027;28;20033;-74
2022/05/18 06:44:19;;;;;;;2.80;2.00;;;22.90;52.60;21.70;101683.00;;;;5066082;28;20042;-74
2022/05/18 06:47:06;;;;;;;4.35;2.40;;;22.90;52.60;21.70;101684.00;;;;5069011;28;20271;-74
2022/05/18 06:49:52;;;;;;;3.42;2.92;;;22.90;52.70;21.80;101682.00;;;;5063609;28;20076;-74
2022/05/18 06:52:38;;;;;;;4.72;2.08;;;22.90;52.70;21.80;101687.00;;;;5066895;28;20051;-74
2022/05/18 06:55:24;;;;;;;3.53;2.70;;;22.90;52.80;21.80;101684.00;;;;5065422;28;20433;-74
2022/05/18 06:58:10;;;;;;;3.05;2.47;;;22.90;52.80;21.70;101681.00;;;;5063877;28;20048;-74
2022/05/18 07:00:56;;;;;;;3.95;2.58;;;22.90;52.80;21.80;101690.00;;;;5066960;28;20204;-73
2022/05/18 07:03:44;;;;;;;4.03;2.50;;;22.90;52.80;21.80;101685.00;;;;5061950;28;20041;-74
2022/05/18 07:06:34;;;;;;;;;;;22.90;52.90;21.80;101686.00;;;;5067507;28;20147;-74
2022/05/18 07:09:21;;;;;;;3.58;2.60;;;22.90;52.80;21.80;101687.00;;;;5063891;28;20444;-74
2022/05/18 07:12:09;;;;;;;3.70;2.75;;;22.90;52.80;21.80;101687.00;;;;5062671;28;20040;-74
2022/05/18 07:14:57;;;;;;;3.78;2.63;;;22.90;52.80;21.80;101693.00;;;;5063299;28;20040;-74
2022/05/18 07:17:43;;;;;;;3.17;2.88;;;22.90;52.80;21.70;101686.00;;;;5062762;28;20039;-73
2022/05/18 07:20:29;;;;;;;6.57;2.85;;;22.90;52.90;21.80;101690.00;;;;5062699;28;20047;-74
2022/05/18 07:23:16;;;;;;;3.67;2.70;;;22.90;52.90;21.80;101687.00;;;;5068147;28;20044;-74
2022/05/18 07:26:02;;;;;;;5.82;2.75;;;22.90;52.90;21.80;101688.00;;;;5061907;28;20036;-74
2022/05/18 07:28:48;;;;;;;5.20;2.83;;;22.80;53.00;21.80;101682.00;;;;5060682;28;20032;-74
2022/05/18 07:32:08;;;;;;;7.63;3.20;;;22.90;53.00;21.80;101683.00;;;;5065659;28;20425;-74
2022/05/18 07:34:41;;;;;;;4.65;3.10;;;22.90;53.20;21.80;101684.00;;;;5056067;28;20052;-74
2022/05/18 07:37:29;;;;;;;3.15;2.72;;;22.90;53.10;21.80;101678.00;;;;5063292;28;20052;-74
2022/05/18 07:40:15;;;;;;;3.90;2.83;;;22.90;53.10;21.80;101679.00;;;;5064746;28;20039;-73
2022/05/18 07:43:01;;;;;;;5.07;3.20;;;23.00;53.10;21.80;101679.00;;;;5062717;28;20083;-73
2022/05/18 07:45:49;;;;;;;3.75;2.88;;;22.90;53.10;21.80;101678.00;;;;5053395;28;20046;-73
2022/05/18 07:48:35;;;;;;;3.42;2.85;;;22.90;53.00;21.80;101676.00;;;;5055038;28;20044;-73
2022/05/18 07:51:22;;;;;;;4.93;3.20;;;22.90;53.10;21.80;101682.00;;;;5078861;28;20497;-73
2022/05/18 07:54:08;;;;;;;6.65;3.10;;;23.00;53.20;21.80;101678.00;;;;5063794;28;20050;-74
2022/05/18 07:56:54;;;;;;;4.97;3.00;;;22.90;53.10;21.80;101679.00;;;;5064338;28;20488;-74
2022/05/18 07:59:40;;;;;;;4.15;2.90;;;23.00;53.20;21.80;101672.00;;;;5065534;28;20044;-73
2022/05/18 08:02:30;;;;;;;7.03;3.10;;;23.00;53.30;21.80;101683.00;;;;5067913;28;20540;-74
2022/05/18 08:05:17;;;;;;;3.40;2.65;;;23.00;53.30;21.80;101669.00;;;;5049880;28;20040;-74
2022/05/18 08:08:23;;;;;;;5.20;2.85;;;22.90;53.20;21.80;101683.00;;;;5070512;28;20036;-73
2022/05/18 08:15:05;;;;;;;4.10;2.63;;;23.00;53.30;21.80;101680.00;;;;5070368;28;20513;-74
2022/05/18 08:17:40;;;;;;;4.13;2.60;;;23.00;53.30;21.80;101681.00;;;;5065087;28;20368;-73
2022/05/18 08:20:26;;;;;;;4.20;2.63;;;23.00;53.30;21.80;101677.00;;;;5054656;28;20033;-74
2022/05/18 08:23:12;;;;;;;3.30;2.25;;;23.00;53.30;21.80;101678.00;;;;5056260;28;20036;-73
2022/05/18 08:25:58;;;;;;;3.38;2.33;;;23.00;53.40;21.80;101679.00;;;;5053444;28;20436;-74
2022/05/18 08:28:44;;;;;;;4.13;2.85;;;23.00;53.50;21.80;101682.00;;;;5056253;28;20119;-74
2022/05/18 08:31:31;;;;;;;4.68;2.90;;;23.00;53.40;21.80;101678.00;;;;5069465;28;20044;-73
2022/05/18 08:34:18;;;;;;;5.05;3.03;;;22.90;53.40;21.80;101677.00;;;;5081412;28;20037;-73
2022/05/18 08:37:04;;;;;;;5.20;2.78;;;23.00;53.60;21.80;101676.00;;;;5061339;28;20063;-74
2022/05/18 08:39:51;;;;;;;4.82;2.95;;;23.00;53.50;21.80;101682.00;;;;5064697;28;20048;-74
2022/05/18 08:42:37;;;;;;;6.63;2.50;;;23.00;53.50;21.80;101682.00;;;;5054382;28;20044;-74
2022/05/18 08:45:25;;;;;;;3.25;2.80;;;23.00;53.40;21.80;101676.00;;;;5065178;28;20032;-74
2022/05/18 08:48:39;;;;;;;5.15;2.92;;;23.00;53.40;21.90;101676.00;;;;5084009;28;20033;-74
2022/05/18 08:51:53;;;;;;;3.85;2.20;;;23.10;53.50;21.90;101682.00;;;;5063025;28;20041;-74
2022/05/18 08:55:19;;;;;;;4.55;2.60;;;23.10;53.50;21.90;101676.00;;;;5056944;28;20494;-74
2022/05/18 08:58:28;;;;;;;3.65;2.67;;;23.10;53.50;21.80;101673.00;;;;5060102;28;20048;-74
2022/05/18 09:01:23;;;;;;;3.72;2.70;;;23.10;53.40;21.90;101679.00;;;;5065071;28;20066;-74
2022/05/18 09:04:31;;;;;;;3.92;2.50;;;23.00;53.40;21.80;101674.00;;;;5047909;28;20473;-74
2022/05/18 09:07:21;;;;;;;4.43;2.90;;;23.10;53.50;21.90;101681.00;;;;5064684;28;20032;-74
2022/05/18 09:10:18;;;;;;;3.95;2.75;;;23.10;53.50;21.90;101682.00;;;;5051667;28;20106;-74
2022/05/18 09:13:05;;;;;;;3.63;2.75;;;23.10;53.60;21.90;101682.00;;;;5066866;28;20383;-73
2022/05/18 09:16:19;;;;;;;4.60;2.78;;;23.00;53.50;21.90;101680.00;;;;5065045;28;20071;-74
2022/05/18 09:19:18;;;;;;;5.20;2.45;;;23.10;53.60;21.90;101681.00;;;;5074280;28;20052;-74
2022/05/18 09:22:55;;;;;;;4.15;2.10;;;23.10;53.50;21.90;101681.00;;;;5064509;28;20249;-73
2022/05/18 09:26:17;;;;;;;2.97;2.45;;;23.10;53.50;21.90;101678.00;;;;5067682;28;20086;-74
2022/05/18 09:29:33;;;;;;;5.30;3.22;;;23.10;53.40;21.90;101682.00;;;;5056077;28;20029;-74
2022/05/18 09:32:59;;;;;;;3.42;2.83;;;23.10;53.40;21.90;101672.00;;;;5064592;28;20043;-73
2022/05/18 09:36:00;;;;;;;4.85;2.63;;;23.10;53.40;21.90;101669.00;;;;5039137;28;20040;-74
2022/05/18 09:39:10;;;;;;;4.93;2.50;;;23.10;53.30;21.90;101674.00;;;;5072017;28;20064;-73
2022/05/18 09:42:03;;;;;;;3.70;2.67;;;23.10;53.30;21.90;101675.00;;;;5081068;28;20044;-73
2022/05/18 09:45:10;;;;;;;3.95;2.65;;;23.10;53.30;21.90;101670.00;;;;5047108;28;20041;-73
2022/05/18 09:48:13;;;;;;;3.67;2.33;;;23.10;53.20;21.90;101676.00;;;;5068241;28;20059;-74
2022/05/18 09:50:59;;;;;;;2.85;2.10;;;23.10;53.10;21.90;101674.00;;;;5040745;28;20504;-74
2022/05/18 09:53:45;;;;;;;2.63;2.42;;;23.10;53.10;21.90;101663.00;;;;5066373;28;20264;-74
2022/05/18 09:57:05;;;;;;;3.65;2.47;;;23.20;53.10;22.00;101664.00;;;;5069162;28;20037;-73
2022/05/18 09:59:56;;;;;;;4.18;2.65;;;23.20;53.20;22.00;101673.00;;;;5062201;28;20106;-74
2022/05/18 10:09:14;;;;;;;2.90;2.08;;;23.20;53.20;22.00;101661.00;;;;5045816;28;20299;-73
2022/05/18 10:12:19;;;;;;;5.25;2.20;;;23.20;53.10;22.00;101660.00;;;;5053485;28;20055;-74
2022/05/18 10:15:20;;;;;;;2.85;2.25;;;23.20;53.00;22.00;101657.00;;;;5068167;28;20057;-74
2022/05/18 10:18:43;;;;;;;3.45;2.50;;;23.30;53.10;22.10;101656.00;;;;5060850;28;20048;-74
2022/05/18 10:21:50;;;;;;;3.42;2.10;;;23.30;53.20;22.10;101653.00;;;;5049592;28;20394;-74
2022/05/18 10:24:57;;;;;;;4.57;2.70;;;23.30;53.10;22.10;101646.00;;;;5048601;28;20496;-74
2022/05/18 10:27:44;;;;;;;2.95;2.40;;;23.30;53.00;22.10;101650.00;;;;5055847;28;20041;-74
2022/05/18 10:30:34;;;;;;;2.90;2.13;;;23.40;53.00;22.10;101655.00;;;;5032540;28;20067;-73
2022/05/18 10:33:22;;;;;;;4.13;2.88;;;23.40;53.00;22.10;101652.00;;;;5040755;28;20117;-74
2022/05/18 10:36:13;;;;;;;5.07;2.50;;;23.40;52.90;22.10;101648.00;;;;5040580;28;20091;-74
2022/05/18 10:39:03;;;;;;;4.43;2.30;;;23.40;52.90;22.10;101646.00;;;;5057289;28;20093;-74
2022/05/18 10:41:49;;;;;;;3.90;2.42;;;23.40;52.70;22.10;101646.00;;;;5070854;28;20094;-74
2022/05/18 10:44:36;;;;;;;4.15;2.75;;;23.40;52.60;22.20;101651.00;;;;5073990;28;20048;-73
2022/05/18 10:47:38;;;;;;;2.53;2.20;;;23.40;52.60;22.20;101646.00;;;;5046184;28;20037;-74
2022/05/18 10:50:38;;;;;;;2.95;1.73;;;23.40;52.50;22.20;101647.00;;;;5043863;28;20049;-74
2022/05/18 10:53:32;;;;;;;3.03;2.00;;;23.50;52.50;22.20;101641.00;;;;5062421;28;20037;-74
2022/05/18 10:56:29;;;;;;;4.18;2.20;;;23.50;52.30;22.20;101645.00;;;;5059464;28;20044;-74
2022/05/18 10:59:42;;;;;;;2.78;2.03;;;23.50;52.30;22.20;101635.00;;;;5073144;28;20037;-74
2022/05/18 11:02:36;;;;;;;2.03;1.83;;;23.50;52.20;22.20;101641.00;;;;5048735;28;20052;-74
2022/05/18 11:05:38;;;;;;;2.28;1.65;;;23.50;52.10;22.20;101636.00;;;;5044800;28;20047;-74
2022/05/18 11:08:28;;;;;;;3.50;1.83;;;23.50;52.10;22.20;101638.00;;;;5067799;28;20426;-73
2022/05/18 11:11:56;;;;;;;3.47;2.47;;;23.50;52.10;22.20;101632.00;;;;5046667;28;20052;-74
2022/05/18 11:15:06;;;;;;;3.85;2.03;;;23.50;52.70;22.20;101632.00;;;;5002293;28;20045;-74
2022/05/18 11:18:20;;;;;;;3.47;1.92;;;23.50;51.80;22.20;101627.00;;;;5044569;28;20056;-74
2022/05/18 11:21:23;;;;;;;3.70;2.00;;;23.50;51.60;22.20;101614.00;;;;5057800;28;20052;-73
2022/05/18 11:24:34;;;;;;;3.10;1.80;;;23.60;51.60;22.30;101624.00;;;;5068193;28;20040;-74
2022/05/18 11:27:42;;;;;;;4.68;1.85;;;23.50;51.40;22.30;101615.00;;;;5062334;28;20637;-74
2022/05/18 11:30:34;;;;;;;3.40;2.03;;;23.60;51.50;22.30;101623.00;;;;5050948;28;20041;-73
2022/05/18 11:33:28;;;;;;;3.13;1.77;;;23.60;51.60;22.30;101614.00;;;;5058515;28;20543;-73
2022/05/18 11:36:42;;;;;;;2.55;2.10;;;23.60;51.50;22.30;101617.00;;;;5048101;28;20045;-74
2022/05/18 11:39:46;;;;;;;1.92;1.73;;;23.60;51.40;22.30;101622.00;;;;5060806;28;20041;-73
2022/05/18 11:43:01;;;;;;;6.25;1.80;;;23.60;51.30;22.30;101624.00;;;;5067756;28;20128;-74
2022/05/18 11:46:08;;;;;;;6.05;1.85;;;23.70;51.20;22.30;101614.00;;;;5074783;28;20032;-74
2022/05/18 11:49:20;;;;;;;4.20;1.70;;;23.60;51.70;22.30;101612.00;;;;5054321;28;20119;-74
2022/05/18 11:52:34;;;;;;;3.83;1.83;;;23.70;51.10;22.40;101606.00;;;;5044610;28;20425;-74
2022/05/18 11:56:26;;;;;;;2.47;1.60;;;23.70;51.00;22.40;101600.00;;;;5078751;28;20040;-73
2022/05/18 11:59:58;;;;;;;5.18;1.63;;;23.70;51.10;22.40;101606.00;;;;5064671;28;20040;-73
2022/05/18 12:03:17;;;;;;;2.00;1.40;;;23.70;50.90;22.40;101604.00;;;;5071882;28;20098;-73
2022/05/18 12:06:39;;;;;;;3.20;1.63;;;23.70;50.60;22.40;101614.00;;;;5066590;28;20040;-74
2022/05/18 12:09:57;;;;;;;3.67;2.03;;;23.80;50.80;22.40;101607.00;;;;5063177;28;20052;-74
2022/05/18 12:13:08;;;;;;;3.65;1.70;;;23.80;50.60;22.40;101606.00;;;;5007377;28;20044;-73
2022/05/18 12:16:40;;;;;;;5.40;1.75;;;23.80;50.50;22.40;101615.00;;;;5054199;28;20221;-73
2022/05/18 12:19:55;;;;;;;2.38;1.83;;;23.80;50.60;22.50;101607.00;;;;5068474;28;20040;-73
2022/05/18 12:22:48;;;;;;;2.80;1.83;;;23.80;50.90;22.50;101605.00;;;;5045438;28;20053;-73
2022/05/18 12:25:34;;;;;;;4.65;2.10;;;23.80;50.60;22.50;101598.00;;;;5046576;28;20114;-73
2022/05/18 12:28:20;;;;;;;2.97;1.88;;;23.80;50.50;22.50;101603.00;;;;5050395;28;20045;-74
2022/05/18 12:31:06;;;;;;;3.83;1.67;;;23.90;50.50;22.50;101605.00;;;;5058101;28;20052;-73
2022/05/18 12:34:05;;;;;;;4.32;2.22;;;23.90;50.60;22.60;101602.00;;;;5073681;28;20054;-73
2022/05/18 12:37:13;;;;;;;5.55;1.80;;;23.90;50.40;22.60;101604.00;;;;5074721;28;20071;-73
2022/05/18 12:40:15;;;;;;;3.13;2.30;;;23.90;50.40;22.60;101604.00;;;;5053409;28;20433;-74
2022/05/18 12:43:37;;;;;;;3.47;1.90;;;23.90;50.90;22.60;101614.00;;;;5060370;28;20391;-73
2022/05/18 12:46:31;;;;;;;4.13;1.80;;;23.90;50.20;22.60;101604.00;;;;5074736;28;20075;-73
2022/05/18 12:49:40;;;;;;;3.10;2.00;;;24.00;50.20;22.60;101607.00;;;;5047223;28;20114;-74
2022/05/18 12:52:29;;;;;;;;;;;24.00;50.00;22.60;101588.00;;;;5061986;28;20048;-74
2022/05/18 12:55:37;;;;;;;;;;;24.00;50.50;22.60;101602.00;;;;5059703;28;20415;-73